Time;durP1;ratioP1;P1;durP2;ratioP2;P2;SDS_P1;SDS_P2;PMS_P1;PMS_P2;Temp;Humidity;BMP_temperature;BMP_pressure;BME280_temperature;BME280_humidity;BME280_pressure;Samples;Min_cycle;Max_cycle;Signal;HPM_P1;HPM_P2
2022/07/24 00:01:36;;;;;;;29.83;13.05;;;;;;;;;;5050404;28;20049;-72
2022/07/24 00:04:04;;;;;;;34.15;17.92;;;;;;;;;;5050305;28;20059;-72
2022/07/24 00:06:32;;;;;;;27.83;13.55;;;;;;;;;;5050183;28;20099;-73
2022/07/24 00:08:59;;;;;;;30.33;17.02;;;;;;;;;;5050166;28;20049;-72
2022/07/24 00:11:27;;;;;;;34.00;17.65;;;;;;;;;;5050460;28;20041;-72
2022/07/24 00:13:55;;;;;;;32.92;18.88;;;;;;;;;;5050048;28;20037;-72
2022/07/24 00:16:23;;;;;;;32.53;16.15;;;;;;;;;;5118888;27;20101;-72
2022/07/24 00:18:51;;;;;;;35.10;15.73;;;;;;;;;;5050107;28;20033;-72
2022/07/24 00:21:18;;;;;;;45.28;27.15;;;;;;;;;;5050603;27;20133;-72
2022/07/24 00:23:46;;;;;;;39.95;21.67;;;;;;;;;;5050349;28;20363;-72
2022/07/24 00:26:13;;;;;;;30.48;14.55;;;;;;;;;;5050002;28;20053;-72
2022/07/24 00:28:41;;;;;;;26.98;15.13;;;;;;;;;;5048909;28;20045;-73
2022/07/24 00:31:09;;;;;;;53.50;36.78;;;;;;;;;;5050187;28;20426;-72
2022/07/24 00:33:37;;;;;;;33.40;15.02;;;;;;;;;;5049876;28;20072;-72
2022/07/24 00:36:04;;;;;;;25.60;11.57;;;;;;;;;;5049895;28;20041;-72
2022/07/24 00:38:32;;;;;;;31.23;16.15;;;;;;;;;;5049902;28;20048;-73
2022/07/24 00:40:59;;;;;;;41.83;23.85;;;;;;;;;;5049939;28;20041;-72
2022/07/24 00:43:27;;;;;;;48.13;32.47;;;;;;;;;;5049676;28;20041;-72
2022/07/24 00:45:54;;;;;;;25.23;12.63;;;;;;;;;;5049550;28;20059;-73
2022/07/24 00:48:23;;;;;;;33.15;17.05;;;;;;;;;;5049788;28;20540;-73
2022/07/24 00:50:51;;;;;;;33.45;19.25;;;;;;;;;;5049688;28;20041;-72
2022/07/24 00:53:18;;;;;;;34.35;17.48;;;;;;;;;;5049618;28;20112;-72
2022/07/24 00:55:46;;;;;;;38.88;18.38;;;;;;;;;;5049676;28;20045;-72
2022/07/24 00:58:13;;;;;;;48.80;27.45;;;;;;;;;;5049616;28;20037;-72
2022/07/24 01:00:41;;;;;;;31.33;15.55;;;;;;;;;;5049634;28;20045;-72
2022/07/24 01:03:08;;;;;;;21.58;12.50;;;;;;;;;;5049598;28;20090;-72
2022/07/24 01:05:36;;;;;;;22.45;10.80;;;;;;;;;;5049689;28;20041;-72
2022/07/24 01:08:04;;;;;;;25.52;15.77;;;;;;;;;;5049289;28;20415;-72
2022/07/24 01:10:31;;;;;;;44.70;31.98;;;;;;;;;;5117423;28;20120;-72
2022/07/24 01:12:59;;;;;;;20.20;10.70;;;;;;;;;;5049400;28;20048;-72
2022/07/24 01:15:27;;;;;;;25.65;18.05;;;;;;;;;;5049306;28;20044;-72
2022/07/24 01:17:54;;;;;;;16.33;7.63;;;;;;;;;;5049368;28;20494;-72
2022/07/24 01:20:22;;;;;;;17.08;6.45;;;;;;;;;;5049335;28;20073;-72
2022/07/24 01:22:49;;;;;;;28.40;18.80;;;;;;;;;;5049344;28;20037;-72
2022/07/24 01:25:17;;;;;;;17.15;10.13;;;;;;;;;;5049276;28;20102;-73
2022/07/24 01:27:45;;;;;;;18.73;11.10;;;;;;;;;;5049350;28;20052;-72
2022/07/24 01:30:12;;;;;;;11.75;6.50;;;;;;;;;;5049153;28;20602;-72
2022/07/24 01:32:40;;;;;;;13.98;6.15;;;;;;;;;;5049244;28;20048;-72
2022/07/24 01:35:07;;;;;;;18.50;11.18;;;;;;;;;;5049266;28;20073;-72
2022/07/24 01:37:35;;;;;;;11.30;6.38;;;;;;;;;;5117445;28;20037;-72
2022/07/24 01:40:03;;;;;;;16.73;10.98;;;;;;;;;;5049489;28;20101;-72
2022/07/24 01:42:30;;;;;;;17.38;9.57;;;;;;;;;;5052560;28;20037;-72
2022/07/24 01:44:58;;;;;;;35.42;25.27;;;;;;;;;;5052351;28;20101;-72
2022/07/24 01:47:25;;;;;;;12.52;6.32;;;;;;;;;;5052445;28;20063;-72
2022/07/24 01:49:53;;;;;;;11.90;6.95;;;;;;;;;;5052429;28;20041;-72
2022/07/24 01:52:20;;;;;;;21.90;15.40;;;;;;;;;;5052443;28;20037;-72
2022/07/24 01:54:48;;;;;;;12.88;6.63;;;;;;;;;;5052220;28;20045;-72
2022/07/24 01:57:15;;;;;;;8.60;6.25;;;;;;;;;;5052296;28;20048;-72
2022/07/24 01:59:46;;;;;;;13.68;10.63;;;;;;;;;;5052366;28;20128;-72
2022/07/24 02:02:14;;;;;;;18.85;12.98;;;;;;;;;;5052247;28;20049;-72
2022/07/24 02:04:42;;;;;;;15.85;8.43;;;;;;;;;;5052052;28;20037;-72
2022/07/24 02:07:09;;;;;;;14.15;7.00;;;;;;;;;;5052520;28;20379;-72
2022/07/24 02:09:37;;;;;;;11.65;6.30;;;;;;;;;;5052003;28;20066;-72
2022/07/24 02:12:05;;;;;;;13.25;6.22;;;;;;;;;;5052418;28;20041;-72
2022/07/24 02:14:32;;;;;;;11.82;6.57;;;;;;;;;;5052419;27;20053;-72
2022/07/24 02:17:00;;;;;;;12.90;7.80;;;;;;;;;;5052205;28;20043;-72
2022/07/24 02:19:27;;;;;;;16.17;6.95;;;;;;;;;;5052017;28;20045;-72
2022/07/24 02:21:55;;;;;;;12.48;5.65;;;;;;;;;;5051874;28;20047;-73
2022/07/24 02:24:23;;;;;;;12.05;5.75;;;;;;;;;;5051979;28;20033;-73
2022/07/24 02:26:50;;;;;;;14.52;6.90;;;;;;;;;;5051858;28;20049;-72
2022/07/24 02:29:18;;;;;;;13.35;8.68;;;;;;;;;;5051967;28;20102;-73
2022/07/24 02:31:45;;;;;;;24.20;18.88;;;;;;;;;;5051769;28;20045;-73
2022/07/24 02:34:13;;;;;;;25.00;15.10;;;;;;;;;;5051720;28;20043;-73
2022/07/24 02:36:41;;;;;;;21.73;14.27;;;;;;;;;;5051824;28;20414;-72
2022/07/24 02:39:09;;;;;;;32.92;23.83;;;;;;;;;;5120275;27;20048;-73
2022/07/24 02:41:36;;;;;;;108.55;87.85;;;;;;;;;;5051707;28;20464;-73
2022/07/24 02:44:04;;;;;;;48.40;36.30;;;;;;;;;;5051409;28;20052;-73
2022/07/24 02:46:31;;;;;;;11.20;5.47;;;;;;;;;;5051519;28;20405;-73
2022/07/24 02:48:59;;;;;;;16.45;5.70;;;;;;;;;;5051650;28;20500;-73
2022/07/24 02:51:27;;;;;;;9.63;5.97;;;;;;;;;;5050900;28;20097;-73
2022/07/24 02:53:54;;;;;;;35.75;27.13;;;;;;;;;;5051132;28;20154;-73
2022/07/24 02:56:21;;;;;;;14.18;9.55;;;;;;;;;;5120567;27;20402;-73
2022/07/24 02:58:49;;;;;;;16.23;10.40;;;;;;;;;;5051391;28;20049;-73
2022/07/24 03:01:17;;;;;;;12.25;5.68;;;;;;;;;;5120491;27;20052;-73
2022/07/24 03:03:44;;;;;;;10.23;5.82;;;;;;;;;;5051338;28;20072;-73
2022/07/24 03:06:12;;;;;;;26.77;20.88;;;;;;;;;;5051459;28;20436;-73
2022/07/24 03:08:39;;;;;;;9.35;5.85;;;;;;;;;;5051168;28;20047;-73
2022/07/24 03:11:07;;;;;;;14.77;8.77;;;;;;;;;;5051111;28;20045;-73
2022/07/24 03:13:34;;;;;;;11.45;6.18;;;;;;;;;;5051151;28;20076;-73
2022/07/24 03:16:02;;;;;;;16.45;9.60;;;;;;;;;;5051323;28;20041;-73
2022/07/24 03:18:29;;;;;;;13.50;5.95;;;;;;;;;;5051237;28;20041;-73
2022/07/24 03:20:57;;;;;;;11.02;6.20;;;;;;;;;;5051164;28;20045;-73
2022/07/24 03:23:24;;;;;;;13.80;7.22;;;;;;;;;;5051075;28;20048;-73
2022/07/24 03:25:54;;;;;;;16.60;11.40;;;;;;;;;;5051057;28;20048;-73
2022/07/24 03:28:21;;;;;;;16.67;9.10;;;;;;;;;;5118988;27;20037;-73
2022/07/24 03:30:49;;;;;;;13.65;7.43;;;;;;;;;;5050951;28;20055;-73
2022/07/24 03:33:16;;;;;;;15.35;6.50;;;;;;;;;;5050925;28;20101;-74
2022/07/24 03:35:44;;;;;;;11.52;7.55;;;;;;;;;;5051009;28;20400;-74
2022/07/24 03:38:11;;;;;;;14.90;7.45;;;;;;;;;;5050750;28;20044;-74
2022/07/24 03:40:39;;;;;;;18.90;12.32;;;;;;;;;;5050862;28;20037;-73
2022/07/24 03:43:07;;;;;;;20.30;10.73;;;;;;;;;;5050683;28;20037;-73
2022/07/24 03:45:34;;;;;;;18.25;8.15;;;;;;;;;;5050517;28;20073;-73
2022/07/24 03:48:02;;;;;;;21.88;10.27;;;;;;;;;;5050755;28;20044;-73
2022/07/24 03:50:30;;;;;;;28.27;17.60;;;;;;;;;;5050538;28;20045;-73
2022/07/24 03:52:57;;;;;;;21.95;13.05;;;;;;;;;;5050635;28;20114;-73
2022/07/24 03:55:25;;;;;;;20.50;11.45;;;;;;;;;;5050444;28;20072;-73
2022/07/24 03:57:52;;;;;;;16.73;8.93;;;;;;;;;;5050494;28;20040;-73
2022/07/24 04:00:20;;;;;;;12.73;7.47;;;;;;;;;;5050450;28;20044;-73
2022/07/24 04:02:48;;;;;;;17.88;6.90;;;;;;;;;;5050061;28;20044;-73
2022/07/24 04:05:15;;;;;;;14.65;7.55;;;;;;;;;;5050664;28;20367;-74
2022/07/24 04:07:43;;;;;;;14.93;6.50;;;;;;;;;;5050410;28;20045;-74
2022/07/24 04:10:10;;;;;;;14.02;7.43;;;;;;;;;;5050371;28;20056;-74
2022/07/24 04:12:38;;;;;;;14.13;6.65;;;;;;;;;;5050271;28;20048;-74
2022/07/24 04:15:05;;;;;;;11.40;6.65;;;;;;;;;;5050088;28;20121;-74
2022/07/24 04:17:33;;;;;;;16.42;10.40;;;;;;;;;;5050124;28;20040;-73
2022/07/24 04:20:00;;;;;;;15.38;8.40;;;;;;;;;;5049978;28;20440;-74
2022/07/24 04:22:28;;;;;;;19.45;12.05;;;;;;;;;;5050094;28;20045;-74
2022/07/24 04:24:55;;;;;;;12.30;6.22;;;;;;;;;;5049980;28;20037;-74
2022/07/24 04:27:23;;;;;;;14.13;8.30;;;;;;;;;;5050114;28;20065;-73
2022/07/24 04:29:50;;;;;;;12.40;7.32;;;;;;;;;;5050242;28;20412;-74
2022/07/24 04:32:18;;;;;;;12.68;7.60;;;;;;;;;;5050033;28;20044;-73
2022/07/24 04:34:45;;;;;;;17.80;11.57;;;;;;;;;;5049859;28;20080;-73
2022/07/24 04:37:13;;;;;;;11.45;8.23;;;;;;;;;;5049837;28;20040;-73
2022/07/24 04:39:40;;;;;;;12.32;7.22;;;;;;;;;;5050131;27;20486;-73
2022/07/24 04:42:08;;;;;;;12.13;7.00;;;;;;;;;;5049842;28;20055;-73
2022/07/24 04:44:36;;;;;;;11.20;7.03;;;;;;;;;;5049531;28;20053;-73
2022/07/24 04:47:03;;;;;;;31.42;25.33;;;;;;;;;;5049771;28;20047;-73
2022/07/24 04:49:31;;;;;;;11.02;6.18;;;;;;;;;;5049551;28;20085;-73
2022/07/24 04:51:58;;;;;;;17.27;6.88;;;;;;;;;;5049730;28;20450;-73
2022/07/24 04:54:26;;;;;;;13.90;9.40;;;;;;;;;;5049623;28;20063;-73
2022/07/24 04:56:53;;;;;;;15.00;8.02;;;;;;;;;;5049511;28;20065;-75
2022/07/24 04:59:21;;;;;;;13.10;7.93;;;;;;;;;;5049895;28;20124;-73
2022/07/24 05:01:48;;;;;;;12.20;7.43;;;;;;;;;;5048865;28;20490;-73
2022/07/24 05:04:16;;;;;;;13.88;7.38;;;;;;;;;;5048676;28;20045;-73
2022/07/24 05:06:46;;;;;;;10.73;6.18;;;;;;;;;;5048898;28;20558;-74
2022/07/24 05:09:14;;;;;;;18.33;11.02;;;;;;;;;;5049495;28;20121;-74
2022/07/24 05:11:41;;;;;;;11.40;5.85;;;;;;;;;;5049446;28;20037;-73
2022/07/24 05:14:09;;;;;;;16.63;9.75;;;;;;;;;;5049516;28;20505;-73
2022/07/24 05:16:36;;;;;;;16.42;9.57;;;;;;;;;;5051889;28;20150;-71
2022/07/24 05:19:04;;;;;;;11.05;7.68;;;;;;;;;;5121258;27;20044;-71
2022/07/24 05:21:32;;;;;;;9.63;5.78;;;;;;;;;;5052875;28;20047;-73
2022/07/24 05:24:01;;;;;;;14.15;6.15;;;;;;;;;;5053015;28;20041;-74
2022/07/24 05:26:31;;;;;;;12.30;5.65;;;;;;;;;;5052838;28;20089;-73
2022/07/24 05:28:59;;;;;;;11.40;8.05;;;;;;;;;;5053013;28;20044;-72
2022/07/24 05:31:26;;;;;;;19.50;6.47;;;;;;;;;;5052742;28;20049;-72
2022/07/24 05:33:54;;;;;;;13.05;6.07;;;;;;;;;;5052564;28;20041;-72
2022/07/24 05:36:22;;;;;;;11.15;7.10;;;;;;;;;;5052633;28;20116;-72
2022/07/24 05:38:49;;;;;;;14.15;6.97;;;;;;;;;;5052684;28;20037;-72
2022/07/24 05:41:17;;;;;;;18.42;6.47;;;;;;;;;;5052661;28;20120;-72
2022/07/24 05:43:44;;;;;;;12.32;6.65;;;;;;;;;;5052601;28;20037;-72
2022/07/24 05:46:12;;;;;;;9.68;5.80;;;;;;;;;;5052397;28;20053;-72
2022/07/24 05:48:45;;;;;;;12.68;7.60;;;;;;;;;;5052486;28;20060;-72
2022/07/24 05:51:12;;;;;;;21.20;14.52;;;;;;;;;;5052452;27;20076;-72
2022/07/24 05:53:40;;;;;;;12.10;6.28;;;;;;;;;;5051889;28;20093;-72
2022/07/24 05:56:08;;;;;;;14.23;6.75;;;;;;;;;;5120412;27;20045;-72
2022/07/24 05:58:35;;;;;;;10.43;5.88;;;;;;;;;;5051634;28;20060;-72
2022/07/24 06:01:03;;;;;;;9.73;5.85;;;;;;;;;;5048746;28;20044;-72
2022/07/24 06:03:30;;;;;;;9.80;6.47;;;;;;;;;;5051322;28;20032;-72
2022/07/24 06:05:58;;;;;;;13.23;6.97;;;;;;;;;;5037773;28;20124;-73
2022/07/24 06:08:26;;;;;;;11.60;7.32;;;;;;;;;;5032358;28;20045;-73
2022/07/24 06:10:53;;;;;;;15.13;8.23;;;;;;;;;;5032358;28;20399;-74
2022/07/24 06:13:20;;;;;;;17.70;7.85;;;;;;;;;;5032363;28;20073;-74
2022/07/24 06:15:48;;;;;;;11.57;7.07;;;;;;;;;;5032204;28;20041;-73
2022/07/24 06:18:16;;;;;;;20.40;12.45;;;;;;;;;;5032318;28;20140;-74
2022/07/24 06:20:43;;;;;;;12.38;7.72;;;;;;;;;;5032046;28;20048;-75
2022/07/24 06:23:15;;;;;;;12.70;7.25;;;;;;;;;;5032274;28;20046;-76
2022/07/24 06:25:48;;;;;;;23.52;13.32;;;;;;;;;;5032014;28;20041;-72
2022/07/24 06:28:16;;;;;;;15.43;6.30;;;;;;;;;;5031873;28;20526;-70
2022/07/24 06:30:43;;;;;;;19.27;14.32;;;;;;;;;;5031915;28;20499;-72
2022/07/24 06:33:11;;;;;;;8.20;5.93;;;;;;;;;;5031845;28;20045;-73
2022/07/24 06:35:38;;;;;;;20.73;8.10;;;;;;;;;;5036936;28;21172;-73
2022/07/24 06:38:06;;;;;;;14.52;5.80;;;;;;;;;;5049277;28;20052;-72
2022/07/24 06:40:34;;;;;;;12.35;5.65;;;;;;;;;;5036260;28;20069;-69
2022/07/24 06:43:02;;;;;;;28.55;8.32;;;;;;;;;;5050644;28;20043;-72
2022/07/24 06:45:32;;;;;;;27.27;8.65;;;;;;;;;;5049601;28;20053;-73
2022/07/24 06:48:00;;;;;;;32.28;9.07;;;;;;;;;;5050902;28;20482;-73
2022/07/24 06:50:28;;;;;;;35.95;10.73;;;;;;;;;;5051041;28;20063;-73
2022/07/24 06:52:56;;;;;;;26.08;10.82;;;;;;;;;;5040220;28;20044;-72
2022/07/24 06:55:23;;;;;;;17.50;11.13;;;;;;;;;;5047990;28;20060;-74
2022/07/24 06:57:51;;;;;;;41.97;10.68;;;;;;;;;;5119677;27;20055;-73
2022/07/24 07:00:18;;;;;;;25.65;15.18;;;;;;;;;;5050929;28;20037;-73
2022/07/24 07:02:46;;;;;;;20.95;12.68;;;;;;;;;;5050955;28;20127;-74
2022/07/24 07:05:14;;;;;;;15.48;7.85;;;;;;;;;;5050781;28;20048;-73
2022/07/24 07:07:43;;;;;;;17.35;9.15;;;;;;;;;;5050957;28;20043;-72
2022/07/24 07:10:11;;;;;;;17.27;8.88;;;;;;;;;;5050827;28;20391;-73
2022/07/24 07:12:38;;;;;;;12.80;8.45;;;;;;;;;;5050854;28;20037;-73
2022/07/24 07:15:09;;;;;;;16.80;8.68;;;;;;;;;;5051074;28;20047;-73
2022/07/24 07:17:38;;;;;;;14.55;9.35;;;;;;;;;;5049822;28;20124;-74
2022/07/24 07:20:06;;;;;;;22.63;14.05;;;;;;;;;;5050355;28;20128;-74
2022/07/24 07:22:33;;;;;;;12.63;8.43;;;;;;;;;;5050871;28;20041;-73
2022/07/24 07:25:01;;;;;;;16.23;7.75;;;;;;;;;;5040959;28;20040;-73
2022/07/24 07:27:29;;;;;;;10.30;6.93;;;;;;;;;;5029727;28;20051;-74
2022/07/24 07:29:56;;;;;;;10.40;7.85;;;;;;;;;;5032207;28;20093;-74
2022/07/24 07:32:24;;;;;;;13.00;6.57;;;;;;;;;;5032989;28;20047;-71
2022/07/24 07:34:51;;;;;;;11.88;6.07;;;;;;;;;;5033416;28;20072;-70
2022/07/24 07:37:20;;;;;;;12.18;7.35;;;;;;;;;;5032772;28;20120;-70
2022/07/24 07:39:48;;;;;;;15.13;6.78;;;;;;;;;;5035636;28;20090;-72
2022/07/24 07:42:15;;;;;;;13.27;7.25;;;;;;;;;;5037674;28;20045;-72
2022/07/24 07:44:43;;;;;;;14.55;7.95;;;;;;;;;;5106456;27;20391;-73
2022/07/24 07:47:10;;;;;;;14.65;7.07;;;;;;;;;;5047332;28;20124;-72
2022/07/24 07:49:38;;;;;;;13.25;6.70;;;;;;;;;;5033097;28;20045;-72
2022/07/24 07:52:05;;;;;;;9.40;6.47;;;;;;;;;;5048893;28;20041;-71
2022/07/24 07:54:33;;;;;;;16.35;8.40;;;;;;;;;;5044355;28;20033;-72
2022/07/24 07:57:01;;;;;;;17.02;10.27;;;;;;;;;;5040822;28;20371;-71
2022/07/24 07:59:28;;;;;;;13.93;9.27;;;;;;;;;;5041174;28;20041;-71
2022/07/24 08:01:56;;;;;;;14.10;7.95;;;;;;;;;;5036129;28;20037;-71
2022/07/24 08:04:24;;;;;;;14.98;8.30;;;;;;;;;;5033805;28;20041;-71
2022/07/24 08:06:52;;;;;;;20.98;13.43;;;;;;;;;;5039159;28;20089;-70
2022/07/24 08:09:20;;;;;;;26.45;17.75;;;;;;;;;;5033994;27;20048;-71
2022/07/24 08:11:48;;;;;;;19.27;10.48;;;;;;;;;;5046684;28;20066;-71
2022/07/24 08:14:16;;;;;;;15.05;9.18;;;;;;;;;;5034261;27;20065;-71
2022/07/24 08:16:43;;;;;;;13.07;7.65;;;;;;;;;;5100787;27;20049;-71
2022/07/24 08:19:11;;;;;;;12.80;7.50;;;;;;;;;;5046026;28;20547;-71
2022/07/24 08:21:39;;;;;;;15.60;8.27;;;;;;;;;;5042812;28;20044;-70
2022/07/24 08:24:06;;;;;;;13.80;7.75;;;;;;;;;;5046317;28;20048;-70
2022/07/24 08:26:35;;;;;;;13.07;7.15;;;;;;;;;;5102785;27;20049;-75
2022/07/24 08:29:02;;;;;;;12.27;6.25;;;;;;;;;;5039098;28;20037;-83
2022/07/24 08:31:30;;;;;;;13.07;7.40;;;;;;;;;;5110527;27;20041;-80
2022/07/24 08:33:58;;;;;;;14.90;7.82;;;;;;;;;;5039571;28;20040;-82
2022/07/24 08:36:26;;;;;;;11.65;7.95;;;;;;;;;;5033141;28;20360;-77
2022/07/24 08:38:53;;;;;;;14.80;7.10;;;;;;;;;;5031497;28;20044;-79
2022/07/24 08:41:22;;;;;;;16.13;9.38;;;;;;;;;;5037162;28;20045;-80
2022/07/24 08:43:53;;;;;;;12.10;6.10;;;;;;;;;;5101739;27;20045;-78
2022/07/24 08:46:21;;;;;;;20.15;9.48;;;;;;;;;;5034097;28;20659;-78
2022/07/24 08:48:49;;;;;;;15.23;9.35;;;;;;;;;;5037549;28;20562;-78
2022/07/24 08:51:16;;;;;;;16.20;8.50;;;;;;;;;;5035026;28;20041;-78
2022/07/24 08:53:44;;;;;;;24.50;22.05;;;;;;;;;;5034057;28;20034;-79
2022/07/24 08:56:12;;;;;;;12.00;6.82;;;;;;;;;;5033529;28;20454;-79
2022/07/24 08:58:40;;;;;;;12.10;6.20;;;;;;;;;;5036703;28;20108;-79
2022/07/24 09:01:08;;;;;;;10.85;6.20;;;;;;;;;;5032575;28;20038;-77
2022/07/24 09:03:44;;;;;;;12.38;8.27;;;;;;;;;;5037744;28;20068;-79
2022/07/24 09:06:12;;;;;;;12.05;7.22;;;;;;;;;;5037797;28;20548;-77
2022/07/24 09:08:43;;;;;;;10.35;6.28;;;;;;;;;;5038067;28;20041;-77
2022/07/24 09:11:10;;;;;;;13.50;8.85;;;;;;;;;;5034310;28;20076;-75
2022/07/24 09:16:33;;;;;;;11.48;6.05;;;;;;;;;;5033401;28;20116;-77
2022/07/24 09:19:07;;;;;;;14.80;8.18;;;;;;;;;;5036715;28;20073;-77
2022/07/24 09:21:40;;;;;;;12.43;5.82;;;;;;;;;;5113439;28;20128;-75
2022/07/24 09:24:14;;;;;;;12.10;5.70;;;;;;;;;;5035946;28;20114;-78
2022/07/24 09:26:50;;;;;;;9.73;6.20;;;;;;;;;;5028796;28;20038;-75
2022/07/24 09:29:19;;;;;;;9.05;5.70;;;;;;;;;;5033032;28;20045;-73
2022/07/24 09:32:04;;;;;;;11.35;5.28;;;;;;;;;;5031204;28;20045;-77
2022/07/24 09:34:38;;;;;;;12.73;6.10;;;;;;;;;;5031652;28;20410;-75
2022/07/24 09:37:09;;;;;;;11.27;7.22;;;;;;;;;;5028607;28;20129;-74
2022/07/24 09:39:38;;;;;;;11.15;6.65;;;;;;;;;;5037226;28;20543;-73
2022/07/24 09:42:06;;;;;;;10.57;5.97;;;;;;;;;;5124624;28;20043;-74
2022/07/24 09:44:34;;;;;;;13.05;7.78;;;;;;;;;;5037161;28;20049;-74
2022/07/24 09:47:04;;;;;;;13.98;7.35;;;;;;;;;;5115217;28;20051;-73
2022/07/24 09:49:31;;;;;;;14.68;6.95;;;;;;;;;;5048241;28;20045;-75
2022/07/24 09:52:05;;;;;;;15.13;7.72;;;;;;;;;;5047930;28;20033;-76
2022/07/24 09:54:37;;;;;;;14.63;10.13;;;;;;;;;;5048473;28;20403;-74
2022/07/24 09:57:20;;;;;;;13.23;7.95;;;;;;;;;;5048150;28;20454;-75
2022/07/24 09:59:53;;;;;;;11.83;6.60;;;;;;;;;;5048553;28;20101;-74
2022/07/24 10:02:28;;;;;;;10.70;6.05;;;;;;;;;;5050567;28;20055;-74
2022/07/24 10:04:57;;;;;;;13.75;6.68;;;;;;;;;;5051995;28;20041;-75
2022/07/24 10:07:25;;;;;;;11.95;6.45;;;;;;;;;;5118276;27;20037;-74
2022/07/24 10:09:54;;;;;;;9.23;5.43;;;;;;;;;;5050985;28;20450;-74
2022/07/24 10:12:23;;;;;;;8.65;5.65;;;;;;;;;;5049884;28;20037;-74
2022/07/24 10:14:53;;;;;;;9.55;6.88;;;;;;;;;;5050617;27;20037;-74
2022/07/24 10:17:24;;;;;;;9.80;5.85;;;;;;;;;;5051044;28;20049;-75
2022/07/24 10:19:52;;;;;;;10.10;5.55;;;;;;;;;;5051693;28;20040;-74
2022/07/24 10:22:21;;;;;;;10.70;6.32;;;;;;;;;;5051542;28;20049;-75
2022/07/24 10:24:48;;;;;;;9.23;5.97;;;;;;;;;;5051599;28;20032;-75
2022/07/24 10:27:23;;;;;;;8.13;5.38;;;;;;;;;;5051512;28;20048;-74
2022/07/24 10:29:52;;;;;;;8.02;5.32;;;;;;;;;;5051473;28;20036;-74
2022/07/24 10:32:21;;;;;;;9.43;5.13;;;;;;;;;;5097441;27;20053;-74
2022/07/24 10:34:54;;;;;;;7.88;5.22;;;;;;;;;;5051432;27;20040;-74
2022/07/24 10:37:31;;;;;;;8.80;5.10;;;;;;;;;;5095080;27;20076;-74
2022/07/24 10:40:08;;;;;;;10.27;5.47;;;;;;;;;;5046168;28;20439;-73
2022/07/24 10:42:55;;;;;;;10.35;5.18;;;;;;;;;;5119858;27;20059;-73
2022/07/24 10:45:23;;;;;;;10.65;5.32;;;;;;;;;;5038437;28;20049;-75
2022/07/24 10:47:55;;;;;;;28.02;19.33;;;;;;;;;;5051300;28;20049;-73
2022/07/24 10:50:23;;;;;;;7.25;5.60;;;;;;;;;;5051429;28;20113;-73
2022/07/24 10:52:51;;;;;;;9.00;5.10;;;;;;;;;;5051115;28;20048;-73
2022/07/24 10:55:32;;;;;;;11.90;5.10;;;;;;;;;;5050987;28;20051;-73
2022/07/24 10:58:16;;;;;;;8.90;5.65;;;;;;;;;;5051297;28;20065;-73
2022/07/24 11:00:45;;;;;;;10.60;5.80;;;;;;;;;;5051159;28;20037;-73
2022/07/24 11:03:18;;;;;;;15.00;5.50;;;;;;;;;;5051081;28;20041;-73
2022/07/24 11:06:05;;;;;;;9.80;5.68;;;;;;;;;;5037874;28;20041;-74
2022/07/24 11:08:37;;;;;;;9.68;5.63;;;;;;;;;;5050916;28;20041;-73
2022/07/24 11:11:12;;;;;;;10.02;5.50;;;;;;;;;;5050910;28;20033;-72
2022/07/24 11:13:43;;;;;;;7.68;5.85;;;;;;;;;;5048899;28;20462;-71
2022/07/24 11:16:16;;;;;;;10.82;5.53;;;;;;;;;;5050735;28;20125;-72
2022/07/24 11:18:52;;;;;;;12.45;5.65;;;;;;;;;;5050422;28;20066;-74
2022/07/24 11:21:29;;;;;;;8.88;5.40;;;;;;;;;;5050431;28;20056;-73
2022/07/24 11:24:16;;;;;;;7.18;5.75;;;;;;;;;;5050312;28;20073;-74
2022/07/24 11:26:49;;;;;;;11.20;5.45;;;;;;;;;;5050710;28;20068;-74
2022/07/24 11:29:17;;;;;;;10.52;5.53;;;;;;;;;;5049421;28;20071;-75
2022/07/24 11:31:47;;;;;;;8.23;5.40;;;;;;;;;;5075593;27;20037;-75
2022/07/24 11:34:14;;;;;;;8.88;5.45;;;;;;;;;;5049705;28;20045;-79
2022/07/24 11:36:43;;;;;;;11.25;5.47;;;;;;;;;;5049867;28;20037;-74
2022/07/24 11:39:11;;;;;;;8.82;5.32;;;;;;;;;;5050188;28;20045;-74
2022/07/24 11:41:47;;;;;;;10.32;5.65;;;;;;;;;;5050254;28;20051;-74
2022/07/24 11:44:22;;;;;;;10.45;5.20;;;;;;;;;;5050046;28;20048;-74
2022/07/24 11:46:50;;;;;;;9.85;5.43;;;;;;;;;;5049495;28;20081;-73
2022/07/24 11:49:17;;;;;;;8.20;6.35;;;;;;;;;;5048861;28;20417;-72
2022/07/24 11:51:46;;;;;;;8.27;5.43;;;;;;;;;;5048526;28;20037;-74
2022/07/24 11:54:15;;;;;;;8.55;5.38;;;;;;;;;;5048432;28;20041;-73
2022/07/24 11:56:42;;;;;;;13.27;5.80;;;;;;;;;;5048407;28;20547;-75
2022/07/24 11:59:27;;;;;;;10.55;5.43;;;;;;;;;;5045984;28;20057;-72
2022/07/24 12:02:12;;;;;;;10.93;5.40;;;;;;;;;;5032660;28;20038;-73
2022/07/24 12:04:41;;;;;;;8.77;4.95;;;;;;;;;;5030160;28;20037;-74
2022/07/24 12:07:10;;;;;;;11.18;4.78;;;;;;;;;;5031232;28;20047;-75
2022/07/24 12:10:04;;;;;;;10.35;5.30;;;;;;;;;;5029826;28;20082;-74
2022/07/24 12:12:31;;;;;;;;;;;;;;;;;;5038820;28;20551;-74
2022/07/24 12:15:04;;;;;;;8.43;4.78;;;;;;;;;;5049724;28;19931;-75
2022/07/24 12:17:33;;;;;;;10.70;5.40;;;;;;;;;;5036863;28;20111;-74
2022/07/24 12:20:01;;;;;;;12.32;6.72;;;;;;;;;;5049808;28;20050;-74
2022/07/24 12:22:29;;;;;;;8.50;5.82;;;;;;;;;;5049641;28;20033;-74
2022/07/24 12:24:57;;;;;;;15.82;5.65;;;;;;;;;;5049581;28;20047;-74
2022/07/24 12:27:38;;;;;;;9.88;5.63;;;;;;;;;;5049472;28;20037;-76
2022/07/24 12:30:18;;;;;;;11.57;5.05;;;;;;;;;;5049733;28;20045;-75
2022/07/24 12:32:53;;;;;;;11.15;4.70;;;;;;;;;;5049630;28;20048;-74
2022/07/24 12:35:21;;;;;;;8.07;4.80;;;;;;;;;;5049346;28;20098;-73
2022/07/24 12:37:52;;;;;;;11.25;4.70;;;;;;;;;;5049418;28;20394;-74
2022/07/24 12:40:46;;;;;;;10.95;5.30;;;;;;;;;;5041589;28;20041;-74
2022/07/24 12:43:13;;;;;;;12.23;5.55;;;;;;;;;;5050655;28;20052;-75
2022/07/24 12:45:41;;;;;;;9.35;6.45;;;;;;;;;;5048966;28;20053;-72
2022/07/24 12:48:11;;;;;;;7.20;4.38;;;;;;;;;;5049246;28;20052;-75
2022/07/24 12:50:38;;;;;;;13.73;5.80;;;;;;;;;;5049115;28;20047;-75
2022/07/24 12:53:23;;;;;;;11.10;5.68;;;;;;;;;;5048857;28;20037;-73
2022/07/24 12:56:20;;;;;;;10.75;6.05;;;;;;;;;;5049030;28;20033;-72
2022/07/24 12:59:07;;;;;;;8.23;5.18;;;;;;;;;;5057088;28;20056;-72
2022/07/24 13:01:54;;;;;;;7.63;4.95;;;;;;;;;;5049204;28;20044;-74
2022/07/24 13:04:23;;;;;;;8.10;4.40;;;;;;;;;;5048960;28;20040;-73
2022/07/24 13:07:01;;;;;;;10.30;5.10;;;;;;;;;;5048916;28;20038;-73
2022/07/24 13:09:29;;;;;;;9.20;5.40;;;;;;;;;;5048839;28;20094;-72
2022/07/24 13:12:05;;;;;;;9.95;5.25;;;;;;;;;;5112394;28;20390;-73
2022/07/24 13:14:32;;;;;;;11.73;5.60;;;;;;;;;;5048671;28;20033;-75
2022/07/24 13:17:19;;;;;;;11.98;5.50;;;;;;;;;;5048890;28;20067;-71
2022/07/24 13:19:48;;;;;;;11.40;5.55;;;;;;;;;;5048620;28;20068;-72
2022/07/24 13:22:17;;;;;;;11.40;5.10;;;;;;;;;;5048860;28;20037;-74
2022/07/24 13:24:45;;;;;;;7.43;4.80;;;;;;;;;;5048548;28;20132;-74
2022/07/24 13:27:13;;;;;;;6.93;5.07;;;;;;;;;;5048560;28;20502;-74
2022/07/24 13:29:41;;;;;;;9.45;5.32;;;;;;;;;;5048734;28;20438;-74
2022/07/24 13:32:09;;;;;;;8.65;4.75;;;;;;;;;;5048440;28;20068;-74
2022/07/24 13:34:36;;;;;;;8.00;5.15;;;;;;;;;;5048767;28;20038;-74
2022/07/24 13:37:07;;;;;;;8.80;5.35;;;;;;;;;;5050483;28;20037;-71
2022/07/24 13:39:40;;;;;;;6.53;4.63;;;;;;;;;;5052145;28;20037;-73
2022/07/24 13:42:08;;;;;;;9.60;5.68;;;;;;;;;;5052135;28;20037;-73
2022/07/24 13:44:36;;;;;;;10.50;5.63;;;;;;;;;;5052099;28;20053;-72
2022/07/24 13:47:04;;;;;;;7.50;5.53;;;;;;;;;;5051556;28;20048;-73
2022/07/24 13:49:31;;;;;;;12.60;5.80;;;;;;;;;;5051276;28;20047;-73
2022/07/24 13:51:59;;;;;;;11.38;5.90;;;;;;;;;;5052291;28;20041;-76
2022/07/24 13:54:26;;;;;;;12.15;5.63;;;;;;;;;;5052398;28;20041;-74
2022/07/24 13:56:56;;;;;;;6.57;4.90;;;;;;;;;;5049032;28;20038;-74
2022/07/24 13:59:24;;;;;;;8.93;5.03;;;;;;;;;;5037137;28;20042;-75
2022/07/24 14:01:51;;;;;;;9.38;5.60;;;;;;;;;;5036632;28;20086;-75
2022/07/24 14:04:19;;;;;;;9.35;5.13;;;;;;;;;;5040454;28;20041;-75
2022/07/24 14:06:53;;;;;;;10.38;5.60;;;;;;;;;;5048258;28;20037;-75
2022/07/24 14:09:21;;;;;;;13.65;7.18;;;;;;;;;;5049793;28;20041;-74
2022/07/24 14:11:50;;;;;;;10.98;6.60;;;;;;;;;;5050098;28;20069;-75
2022/07/24 14:14:18;;;;;;;7.22;5.50;;;;;;;;;;5049541;28;20764;-75
2022/07/24 14:16:45;;;;;;;13.48;7.43;;;;;;;;;;5049455;28;20072;-75
2022/07/24 14:19:13;;;;;;;9.75;5.72;;;;;;;;;;5049044;27;20045;-73
2022/07/24 14:21:45;;;;;;;10.93;6.03;;;;;;;;;;5050227;28;20040;-75
2022/07/24 14:24:14;;;;;;;11.30;6.10;;;;;;;;;;5050196;28;20073;-75
2022/07/24 14:26:44;;;;;;;8.02;5.97;;;;;;;;;;5050659;28;20443;-74
2022/07/24 14:29:11;;;;;;;10.35;5.68;;;;;;;;;;5051033;28;20045;-75
2022/07/24 14:31:39;;;;;;;9.60;6.45;;;;;;;;;;5040725;28;20033;-75
2022/07/24 14:34:07;;;;;;;9.18;5.65;;;;;;;;;;5047400;28;20053;-73
2022/07/24 14:36:36;;;;;;;6.43;5.70;;;;;;;;;;5051358;28;20112;-73
2022/07/24 14:39:04;;;;;;;7.57;5.40;;;;;;;;;;5069328;27;20040;-73
2022/07/24 14:41:31;;;;;;;7.90;6.07;;;;;;;;;;5051192;28;20136;-73
2022/07/24 14:43:59;;;;;;;11.13;5.35;;;;;;;;;;5051351;28;20398;-73
2022/07/24 14:46:33;;;;;;;6.88;5.53;;;;;;;;;;5051088;28;20430;-73